KBRY/BRY METAR and TAF weather

Enter ICAO airport designator
Station Type Date Time Source
KBRY METAR 2020/08/11 00:15 UTC NOAA

KBRY 110015Z AUTO 19004KT 10SM CLR 26/22 A2994 RMK AO1


Station Type Date Time Source
KBRY Decoded METAR 2020/08/11 00:15 UTC NOAA

Station name not available
Aug 10, 2020 - 08:15 PM EDT / 2020.08.11 0015 UTC
Wind: from the S (190 degrees) at 5 MPH (4 KT):0
Visibility: 10 mile(s):0
Sky conditions: clear
Temperature: 78 F (26 C)
Dew Point: 71 F (22 C)
Relative Humidity: 78%
Pressure (altimeter): 29.94 in. Hg (1013 hPa)
ob: KBRY 110015Z AUTO 19004KT 10SM CLR 26/22 A2994 RMK AO1
cycle: 0

Station Type Date Time Source
KBRY TAF UTC NOAA

Error!

Example: see airport list